createdAt,value
2017-07-02T00:00:06.274Z,68.50
2017-07-02T00:02:32.959Z,68.20
2017-07-02T00:04:59.467Z,67.40
2017-07-02T00:07:26.087Z,68.00
2017-07-02T00:09:52.612Z,67.70
2017-07-02T00:12:19.134Z,68.20
2017-07-02T00:14:45.654Z,67.90
2017-07-02T00:17:12.247Z,67.70
2017-07-02T00:19:38.754Z,68.60
2017-07-02T00:22:05.311Z,68.50
2017-07-02T00:24:31.817Z,68.00
2017-07-02T00:26:58.358Z,68.30
2017-07-02T00:29:24.886Z,69.30
2017-07-02T00:31:51.414Z,68.40
2017-07-02T00:34:17.956Z,68.60
2017-07-02T00:36:44.358Z,68.90
2017-07-02T00:39:10.893Z,69.50
2017-07-02T00:41:38.107Z,69.40
2017-07-02T00:44:04.611Z,69.10
2017-07-02T00:46:31.139Z,69.10
2017-07-02T00:48:57.666Z,69.80
2017-07-02T00:51:24.173Z,69.10
2017-07-02T00:53:50.688Z,69.10
2017-07-02T00:56:17.234Z,68.90
2017-07-02T00:58:44.562Z,69.30
2017-07-02T01:01:11.105Z,69.20
2017-07-02T01:03:38.390Z,68.90
2017-07-02T01:06:05.026Z,68.90
2017-07-02T01:08:31.563Z,68.40
2017-07-02T01:10:58.097Z,69.20
2017-07-02T01:13:24.618Z,69.10
2017-07-02T01:15:51.131Z,69.50
2017-07-02T01:18:17.670Z,69.70
2017-07-02T01:20:44.175Z,69.60
2017-07-02T01:23:10.721Z,69.50
2017-07-02T01:25:37.198Z,69.30
2017-07-02T01:28:03.717Z,69.50
2017-07-02T01:30:30.266Z,69.40
2017-07-02T01:32:56.803Z,69.80
2017-07-02T01:35:23.334Z,70.00
2017-07-02T01:37:49.851Z,69.80
2017-07-02T01:40:17.088Z,69.90
2017-07-02T01:42:44.365Z,70.30
2017-07-02T01:45:10.942Z,69.60
2017-07-02T01:47:37.453Z,69.90
2017-07-02T01:50:04.015Z,69.80
2017-07-02T01:52:30.546Z,69.90
2017-07-02T01:54:57.062Z,69.90
2017-07-02T01:57:23.607Z,69.90
2017-07-02T01:59:50.126Z,69.70
2017-07-02T02:02:28.846Z,69.70
2017-07-02T02:04:55.382Z,69.40
2017-07-02T02:07:21.925Z,70.00
2017-07-02T02:09:48.422Z,69.90
2017-07-02T02:12:15.646Z,70.50
2017-07-02T02:14:42.300Z,70.50
2017-07-02T02:17:08.844Z,70.80
2017-07-02T02:19:35.542Z,70.60
2017-07-02T02:22:02.135Z,71.00
2017-07-02T02:24:28.674Z,71.10
2017-07-02T02:26:55.209Z,71.10
2017-07-02T02:29:21.711Z,71.10
2017-07-02T02:31:48.950Z,71.60
2017-07-02T02:34:15.479Z,70.90
2017-07-02T02:36:42.070Z,70.90
2017-07-02T02:39:08.631Z,70.80
2017-07-02T02:41:35.131Z,72.30
2017-07-02T02:44:01.669Z,71.90
2017-07-02T02:46:28.173Z,72.40
2017-07-02T02:48:54.688Z,72.50
2017-07-02T02:51:21.958Z,73.20
2017-07-02T02:53:49.201Z,73.50
2017-07-02T02:56:16.453Z,73.40
2017-07-02T02:58:42.978Z,73.30
2017-07-02T03:01:09.540Z,73.20
2017-07-02T03:03:36.089Z,72.80
2017-07-02T03:06:02.647Z,73.50
2017-07-02T03:08:29.188Z,73.50
2017-07-02T03:10:55.693Z,73.10
2017-07-02T03:13:22.204Z,73.00
2017-07-02T03:15:48.702Z,72.70
2017-07-02T03:18:15.353Z,72.40
2017-07-02T03:20:41.878Z,72.00
2017-07-02T03:23:08.408Z,71.70
2017-07-02T03:25:35.697Z,71.30
2017-07-02T03:28:02.970Z,71.20
2017-07-02T03:30:29.494Z,71.10
2017-07-02T03:32:56.028Z,72.00
2017-07-02T03:35:22.621Z,71.70
2017-07-02T03:37:49.915Z,72.40
2017-07-02T03:40:16.444Z,71.90
2017-07-02T03:42:42.950Z,70.80
2017-07-02T03:45:09.480Z,72.40
2017-07-02T03:47:35.998Z,71.70
2017-07-02T03:50:02.554Z,72.00
2017-07-02T03:52:29.078Z,72.00
2017-07-02T03:54:55.663Z,70.40
2017-07-02T03:57:22.187Z,71.60
2017-07-02T03:59:48.726Z,71.20
2017-07-02T04:02:15.251Z,71.00
2017-07-02T04:04:41.826Z,70.70
2017-07-02T04:07:08.336Z,70.50
2017-07-02T04:09:34.882Z,70.30
2017-07-02T04:12:01.381Z,69.70
2017-07-02T04:14:27.920Z,70.20
2017-07-02T04:16:54.455Z,70.10
2017-07-02T04:19:21.006Z,69.70
2017-07-02T04:21:47.513Z,69.70
2017-07-02T04:24:14.069Z,70.30
2017-07-02T04:26:40.573Z,69.70
2017-07-02T04:29:07.088Z,70.40
2017-07-02T04:31:34.349Z,69.40
2017-07-02T04:34:00.862Z,69.40
2017-07-02T04:36:27.404Z,69.50
2017-07-02T04:38:53.917Z,69.60
2017-07-02T04:41:20.402Z,69.00
2017-07-02T04:43:47.621Z,70.10
2017-07-02T04:46:14.108Z,70.10
2017-07-02T04:48:40.563Z,69.90
2017-07-02T04:51:07.087Z,70.10
2017-07-02T04:53:33.580Z,69.10
2017-07-02T04:56:00.149Z,70.50
2017-07-02T04:58:26.682Z,69.60
2017-07-02T05:00:53.207Z,69.60
2017-07-02T05:03:19.848Z,69.20
2017-07-02T05:05:46.378Z,69.70
2017-07-02T05:08:12.877Z,69.30
2017-07-02T05:10:39.384Z,68.20
2017-07-02T05:13:05.880Z,68.00
2017-07-02T05:15:32.386Z,67.40
2017-07-02T05:17:58.926Z,67.20
2017-07-02T05:20:25.473Z,67.40
2017-07-02T05:22:51.985Z,67.20
2017-07-02T05:25:18.469Z,67.20
2017-07-02T05:27:45.036Z,67.00
2017-07-02T05:30:11.493Z,67.10
2017-07-02T05:32:37.976Z,66.50
2017-07-02T05:35:04.510Z,66.50
2017-07-02T05:37:31.035Z,66.50
2017-07-02T05:39:57.557Z,66.30
2017-07-02T05:42:24.053Z,66.40
2017-07-02T05:44:50.609Z,66.30
2017-07-02T05:47:17.123Z,65.80
2017-07-02T05:49:43.614Z,65.70
2017-07-02T05:52:10.203Z,65.40
2017-07-02T05:54:36.731Z,65.30
2017-07-02T05:57:03.230Z,65.50
2017-07-02T05:59:29.801Z,64.80
2017-07-02T06:01:57.130Z,65.10
2017-07-02T06:04:23.656Z,65.10
2017-07-02T06:06:50.125Z,64.90
2017-07-02T06:09:16.632Z,65.10
2017-07-02T06:11:43.132Z,64.20
2017-07-02T06:14:09.634Z,64.70
2017-07-02T06:16:36.145Z,64.10
2017-07-02T06:19:02.637Z,62.90
2017-07-02T06:21:29.186Z,64.90
2017-07-02T06:23:56.447Z,63.40
2017-07-02T06:26:23.673Z,63.20
2017-07-02T06:28:50.150Z,63.10
2017-07-02T06:31:16.658Z,62.70
2017-07-02T06:33:43.174Z,62.40
2017-07-02T06:36:09.674Z,61.80
2017-07-02T06:38:36.131Z,61.30
2017-07-02T06:41:02.597Z,61.90
2017-07-02T06:43:29.835Z,62.00
2017-07-02T06:45:57.143Z,61.80
2017-07-02T06:48:23.424Z,61.90
2017-07-02T06:50:49.698Z,61.80
2017-07-02T06:53:15.978Z,61.80
2017-07-02T06:55:42.459Z,62.40
2017-07-02T06:58:08.927Z,61.70
2017-07-02T07:00:35.381Z,62.10
2017-07-02T07:03:02.650Z,61.60
2017-07-02T07:05:28.940Z,62.50
2017-07-02T07:07:55.445Z,62.80
2017-07-02T07:10:21.942Z,63.80
2017-07-02T07:12:49.238Z,61.10
2017-07-02T07:15:15.531Z,61.20
2017-07-02T07:17:42.058Z,60.80
2017-07-02T07:20:08.538Z,60.30
2017-07-02T07:22:35.133Z,60.80
2017-07-02T07:25:01.655Z,60.70
2017-07-02T07:27:28.198Z,60.70
2017-07-02T07:29:55.473Z,61.30
2017-07-02T07:32:21.797Z,61.40
2017-07-02T07:34:48.314Z,60.60
2017-07-02T07:37:14.822Z,60.30
2017-07-02T07:39:41.321Z,60.90
2017-07-02T07:42:07.845Z,60.80
2017-07-02T07:44:34.382Z,60.20
2017-07-02T07:47:01.701Z,62.10
2017-07-02T07:49:28.253Z,62.20
2017-07-02T07:51:54.897Z,61.80
2017-07-02T07:54:21.415Z,62.90
2017-07-02T07:56:48.022Z,62.90
2017-07-02T07:59:14.556Z,62.80
2017-07-02T08:01:41.121Z,61.60
2017-07-02T08:04:07.654Z,60.60
2017-07-02T08:06:34.766Z,60.90
2017-07-02T08:09:01.269Z,60.90
2017-07-02T08:11:27.766Z,60.00
2017-07-02T08:13:55.010Z,60.20
2017-07-02T08:16:21.658Z,60.10
2017-07-02T08:18:48.158Z,59.70
2017-07-02T08:21:14.698Z,61.40
2017-07-02T08:23:41.226Z,60.40
2017-07-02T08:26:07.761Z,60.40
2017-07-02T08:28:34.425Z,59.40
2017-07-02T08:31:01.665Z,59.20
2017-07-02T08:33:28.178Z,59.00
2017-07-02T08:35:54.752Z,58.30
2017-07-02T08:38:21.262Z,58.50
2017-07-02T08:40:47.782Z,59.10
2017-07-02T08:43:15.038Z,58.70
2017-07-02T08:45:41.571Z,58.70
2017-07-02T08:48:08.818Z,59.00
2017-07-02T08:50:35.368Z,59.00
2017-07-02T08:53:02.661Z,58.80
2017-07-02T08:55:29.107Z,58.70
2017-07-02T08:57:55.430Z,59.10
2017-07-02T09:00:21.929Z,60.00
2017-07-02T09:02:48.470Z,60.20
2017-07-02T09:05:15.114Z,60.10
2017-07-02T09:07:41.606Z,61.30
2017-07-02T09:10:08.076Z,60.70
2017-07-02T09:12:34.674Z,61.20
2017-07-02T09:15:01.177Z,61.10
2017-07-02T09:17:27.672Z,61.10
2017-07-02T09:19:54.184Z,61.30
2017-07-02T09:22:20.719Z,61.40
2017-07-02T09:24:47.214Z,61.30
2017-07-02T09:27:13.723Z,61.20
2017-07-02T09:29:40.250Z,61.20
2017-07-02T09:32:06.775Z,61.90
2017-07-02T09:34:34.015Z,62.80
2017-07-02T09:37:01.269Z,62.70
2017-07-02T09:39:27.771Z,62.70
2017-07-02T09:41:54.331Z,63.00
2017-07-02T09:44:20.878Z,62.60
2017-07-02T09:46:47.519Z,63.40
2017-07-02T09:49:14.043Z,62.20
2017-07-02T09:51:41.523Z,63.50
2017-07-02T09:54:07.896Z,63.50
2017-07-02T09:56:35.233Z,63.20
2017-07-02T09:59:01.570Z,63.20
2017-07-02T10:01:27.904Z,62.00
2017-07-02T10:03:54.414Z,62.80
2017-07-02T10:06:20.992Z,62.90
2017-07-02T10:08:47.547Z,63.90
2017-07-02T10:11:14.230Z,66.10
2017-07-02T10:13:40.967Z,66.60
2017-07-02T10:16:07.584Z,68.00
2017-07-02T10:18:34.588Z,68.00
2017-07-02T10:21:01.895Z,70.00
2017-07-02T10:23:28.502Z,71.60
2017-07-02T10:25:55.176Z,71.10
2017-07-02T10:28:21.781Z,72.90
2017-07-02T10:30:48.353Z,73.60
2017-07-02T10:33:14.878Z,74.40
2017-07-02T10:35:41.418Z,73.90
2017-07-02T10:38:07.952Z,75.30
2017-07-02T10:40:34.586Z,75.60
2017-07-02T10:43:01.106Z,75.20
2017-07-02T10:45:27.707Z,76.80
2017-07-02T10:47:54.286Z,76.90
2017-07-02T10:50:21.419Z,75.60
2017-07-02T10:52:47.771Z,75.90
2017-07-02T10:55:14.306Z,76.00
2017-07-02T10:57:40.858Z,76.90
2017-07-02T11:00:07.251Z,76.00
2017-07-02T11:02:33.776Z,76.30
2017-07-02T11:05:00.421Z,76.10
2017-07-02T11:07:26.999Z,74.90
2017-07-02T11:09:54.278Z,72.90
2017-07-02T11:12:20.857Z,72.90
2017-07-02T11:14:47.390Z,74.20
2017-07-02T11:17:13.916Z,74.10
2017-07-02T11:19:40.448Z,71.50
2017-07-02T11:22:06.983Z,72.70
2017-07-02T11:24:33.503Z,72.30
2017-07-02T11:27:00.054Z,72.20
2017-07-02T11:29:26.543Z,71.50
2017-07-02T11:31:53.090Z,70.20
2017-07-02T11:34:19.583Z,70.90
2017-07-02T11:36:46.101Z,71.40
2017-07-02T11:39:12.639Z,71.80
2017-07-02T11:41:39.151Z,71.50
2017-07-02T11:44:05.782Z,71.40
2017-07-02T11:46:32.324Z,72.30
2017-07-02T11:48:58.856Z,71.30
2017-07-02T11:51:25.322Z,71.30
2017-07-02T11:53:51.857Z,71.30
2017-07-02T11:56:18.421Z,71.30
2017-07-02T11:58:45.043Z,72.20
2017-07-02T12:01:11.556Z,70.00
2017-07-02T12:03:38.227Z,71.20
2017-07-02T12:06:05.821Z,71.10
2017-07-02T12:08:32.336Z,71.00
2017-07-02T12:10:58.875Z,71.30
2017-07-02T12:13:28.963Z,71.90
2017-07-02T12:16:02.429Z,73.40
2017-07-02T12:18:51.950Z,73.10
2017-07-02T12:21:18.258Z,77.00
2017-07-02T12:23:44.592Z,76.10
2017-07-02T12:26:16.719Z,77.30
2017-07-02T12:28:51.242Z,78.20
2017-07-02T12:31:17.558Z,76.30
2017-07-02T12:33:43.862Z,78.90
2017-07-02T12:36:10.213Z,75.40
2017-07-02T12:38:36.614Z,72.30
2017-07-02T12:41:03.046Z,73.00
2017-07-02T12:43:29.382Z,69.50
2017-07-02T12:45:55.690Z,71.30
2017-07-02T12:48:24.324Z,70.00
2017-07-02T12:50:50.886Z,73.80
2017-07-02T12:53:17.192Z,71.00
2017-07-02T12:55:43.515Z,69.80
2017-07-02T12:58:09.860Z,70.40
2017-07-02T13:00:36.238Z,69.40
2017-07-02T13:03:03.175Z,71.90
2017-07-02T13:05:29.588Z,70.50
2017-07-02T13:07:55.885Z,68.60
2017-07-02T13:10:22.151Z,68.30
2017-07-02T13:12:48.481Z,72.40
2017-07-02T13:15:14.778Z,68.80
2017-07-02T13:17:41.081Z,66.10
2017-07-02T13:20:07.362Z,67.70
2017-07-02T13:22:33.742Z,65.50
2017-07-02T13:25:00.090Z,65.40
2017-07-02T13:27:26.369Z,65.90
2017-07-02T13:29:52.703Z,64.90
2017-07-02T13:32:19.033Z,66.30
2017-07-02T13:34:45.362Z,61.00
2017-07-02T13:37:11.683Z,59.80
2017-07-02T13:39:37.999Z,64.70
2017-07-02T13:42:04.304Z,67.90
2017-07-02T13:44:30.728Z,59.50
2017-07-02T13:46:57.027Z,58.40
2017-07-02T13:49:23.324Z,59.60
2017-07-02T13:51:50.322Z,56.70
2017-07-02T13:54:16.610Z,56.40
2017-07-02T13:56:42.907Z,54.10
2017-07-02T13:59:09.297Z,59.30
2017-07-02T14:01:35.622Z,55.10
2017-07-02T14:04:02.135Z,57.90
2017-07-02T14:06:28.441Z,54.20
2017-07-02T14:08:54.725Z,52.50
2017-07-02T14:11:21.002Z,56.60
2017-07-02T14:13:47.355Z,54.20
2017-07-02T14:16:13.666Z,53.10
2017-07-02T14:18:40.661Z,53.90
2017-07-02T14:21:06.963Z,54.00
2017-07-02T14:23:33.225Z,54.60
2017-07-02T14:25:59.493Z,50.60
2017-07-02T14:28:26.503Z,51.50
2017-07-02T14:30:53.869Z,51.30
2017-07-02T14:33:20.170Z,54.00
2017-07-02T14:35:46.458Z,51.20
2017-07-02T14:38:12.761Z,53.30
2017-07-02T14:40:39.048Z,51.30
2017-07-02T14:43:05.354Z,50.70
2017-07-02T14:45:31.639Z,48.20
2017-07-02T14:47:57.929Z,50.50
2017-07-02T14:50:24.224Z,50.10
2017-07-02T14:52:50.561Z,50.70
2017-07-02T14:55:16.914Z,52.90
2017-07-02T14:57:43.241Z,52.90
2017-07-02T15:00:09.552Z,54.80
2017-07-02T15:02:35.853Z,53.20
2017-07-02T15:05:02.267Z,51.60
2017-07-02T15:07:28.604Z,52.80
2017-07-02T15:09:54.881Z,52.90
2017-07-02T15:12:21.200Z,52.60
2017-07-02T15:14:48.407Z,54.50
2017-07-02T15:17:15.510Z,52.30
2017-07-02T15:19:41.865Z,52.30
2017-07-02T15:22:08.312Z,50.70
2017-07-02T15:24:34.653Z,50.80
2017-07-02T15:27:01.607Z,49.90
2017-07-02T15:29:28.143Z,49.50
2017-07-02T15:31:54.458Z,49.50
2017-07-02T15:34:20.797Z,48.00
2017-07-02T15:36:47.083Z,48.80
2017-07-02T15:39:13.428Z,48.40
2017-07-02T15:41:39.754Z,47.00
2017-07-02T15:44:06.081Z,46.50
2017-07-02T15:46:32.437Z,47.80
2017-07-02T15:48:58.786Z,46.10
2017-07-02T15:51:25.099Z,46.40
2017-07-02T15:53:52.166Z,46.90
2017-07-02T15:56:18.754Z,46.80
2017-07-02T15:58:45.210Z,47.40
2017-07-02T16:01:12.253Z,48.80
2017-07-02T16:03:39.650Z,48.10
2017-07-02T16:06:05.921Z,47.50
2017-07-02T16:08:32.276Z,48.50
2017-07-02T16:10:58.607Z,49.70
2017-07-02T16:13:25.646Z,47.40
2017-07-02T16:15:52.735Z,45.00
2017-07-02T16:18:19.048Z,44.80
2017-07-02T16:20:45.400Z,46.60
2017-07-02T16:23:11.732Z,43.30
2017-07-02T16:25:38.050Z,44.80
2017-07-02T16:28:04.374Z,44.30
2017-07-02T16:30:30.719Z,44.30
2017-07-02T16:32:57.026Z,42.70
2017-07-02T16:35:23.327Z,42.40
2017-07-02T16:37:49.675Z,42.90
2017-07-02T16:40:16.757Z,43.00
2017-07-02T16:42:43.195Z,43.00
2017-07-02T16:45:09.723Z,43.40
2017-07-02T16:47:36.140Z,42.80
2017-07-02T16:50:02.437Z,44.20
2017-07-02T16:52:28.717Z,44.20
2017-07-02T16:54:55.034Z,42.10
2017-07-02T16:57:21.314Z,41.40
2017-07-02T16:59:47.952Z,41.90
2017-07-02T17:02:14.472Z,42.20
2017-07-02T17:04:42.359Z,42.00
2017-07-02T17:07:08.979Z,42.90
2017-07-02T17:09:35.511Z,43.10
2017-07-02T17:12:01.995Z,40.60
2017-07-02T17:14:28.539Z,41.30
2017-07-02T17:16:55.085Z,39.10
2017-07-02T17:19:21.591Z,39.40
2017-07-02T17:21:48.100Z,39.40
2017-07-02T17:24:15.406Z,39.00
2017-07-02T17:26:41.947Z,39.00
2017-07-02T17:29:08.489Z,39.90
2017-07-02T17:31:35.064Z,39.80
2017-07-02T17:34:01.861Z,39.20
2017-07-02T17:36:28.574Z,38.20
2017-07-02T17:38:55.116Z,38.30
2017-07-02T17:41:21.759Z,38.40
2017-07-02T17:43:48.298Z,39.00
2017-07-02T17:46:14.814Z,39.10
2017-07-02T17:48:41.418Z,39.70
2017-07-02T17:51:07.950Z,40.30
2017-07-02T17:53:34.466Z,39.80
2017-07-02T17:56:01.005Z,39.80
2017-07-02T17:58:28.397Z,39.80
2017-07-02T18:00:54.954Z,40.50
2017-07-02T18:03:21.443Z,40.30
2017-07-02T18:05:47.963Z,40.20
2017-07-02T18:08:15.257Z,40.60
2017-07-02T18:10:41.786Z,40.60
2017-07-02T18:13:08.399Z,41.00
2017-07-02T18:15:34.945Z,40.40
2017-07-02T18:18:01.467Z,40.70
2017-07-02T18:20:28.751Z,40.50
2017-07-02T18:22:55.262Z,40.50
2017-07-02T18:25:21.791Z,40.90
2017-07-02T18:27:48.409Z,41.70
2017-07-02T18:30:14.987Z,42.70
2017-07-02T18:32:41.500Z,43.60
2017-07-02T18:35:08.070Z,42.30
2017-07-02T18:37:34.562Z,43.20
2017-07-02T18:40:01.063Z,42.80
2017-07-02T18:42:27.578Z,44.40
2017-07-02T18:44:54.073Z,43.90
2017-07-02T18:47:20.506Z,43.10
2017-07-02T18:49:47.018Z,43.70
2017-07-02T18:52:13.530Z,43.30
2017-07-02T18:54:40.035Z,42.90
2017-07-02T18:57:06.645Z,43.40
2017-07-02T18:59:33.191Z,44.20
2017-07-02T19:01:59.703Z,44.50
2017-07-02T19:04:26.213Z,45.00
2017-07-02T19:06:52.733Z,44.70
2017-07-02T19:09:19.259Z,45.10
2017-07-02T19:11:45.806Z,45.00
2017-07-02T19:14:13.066Z,45.80
2017-07-02T19:16:40.321Z,46.10
2017-07-02T19:19:07.557Z,45.10
2017-07-02T19:21:34.089Z,45.00
2017-07-02T19:24:00.646Z,45.40
2017-07-02T19:26:27.138Z,45.40
2017-07-02T19:28:54.438Z,47.10
2017-07-02T19:31:21.335Z,47.10
2017-07-02T19:33:47.861Z,46.80
2017-07-02T19:36:14.441Z,46.30
2017-07-02T19:38:41.004Z,46.80
2017-07-02T19:41:07.517Z,47.00
2017-07-02T19:43:34.106Z,47.60
2017-07-02T19:46:00.938Z,46.90
2017-07-02T19:48:27.498Z,47.00
2017-07-02T19:50:54.186Z,48.10
2017-07-02T19:53:20.701Z,47.70
2017-07-02T19:55:47.660Z,47.30
2017-07-02T19:58:15.106Z,47.00
2017-07-02T20:00:41.695Z,47.10
2017-07-02T20:03:08.199Z,46.80
2017-07-02T20:05:34.702Z,46.80
2017-07-02T20:08:01.222Z,47.50
2017-07-02T20:10:27.738Z,47.70
2017-07-02T20:12:54.991Z,48.20
2017-07-02T20:15:21.551Z,47.40
2017-07-02T20:17:48.085Z,47.20
2017-07-02T20:20:15.346Z,47.60
2017-07-02T20:22:41.687Z,47.10
2017-07-02T20:25:08.038Z,46.80
2017-07-02T20:27:34.341Z,47.10
2017-07-02T20:30:00.943Z,47.00
2017-07-02T20:32:27.498Z,47.70
2017-07-02T20:34:54.126Z,49.40
2017-07-02T20:37:20.627Z,48.40
2017-07-02T20:39:47.111Z,48.70
2017-07-02T20:42:13.602Z,49.30
2017-07-02T20:44:40.180Z,49.10
2017-07-02T20:47:06.751Z,50.10
2017-07-02T20:49:33.278Z,50.00
2017-07-02T20:51:59.825Z,50.20
2017-07-02T20:54:27.241Z,52.20
2017-07-02T20:56:53.881Z,52.20
2017-07-02T20:59:20.500Z,51.80
2017-07-02T21:01:47.005Z,50.90
2017-07-02T21:04:14.291Z,51.20
2017-07-02T21:06:40.760Z,50.70
2017-07-02T21:09:08.256Z,50.10
2017-07-02T21:11:34.586Z,50.80
2017-07-02T21:14:01.289Z,50.40
2017-07-02T21:16:27.799Z,51.20
2017-07-02T21:18:54.490Z,50.80
2017-07-02T21:21:20.981Z,51.00
2017-07-02T21:23:47.894Z,51.30
2017-07-02T21:26:15.182Z,52.40
2017-07-02T21:28:41.485Z,52.40
2017-07-02T21:31:08.020Z,52.90
2017-07-02T21:33:34.610Z,51.90
2017-07-02T21:36:01.094Z,52.90
2017-07-02T21:38:27.670Z,53.00
2017-07-02T21:40:54.297Z,52.90
2017-07-02T21:43:20.833Z,52.80
2017-07-02T21:45:47.350Z,54.00
2017-07-02T21:48:13.866Z,53.90
2017-07-02T21:50:40.346Z,53.90
2017-07-02T21:53:06.839Z,53.80
2017-07-02T21:55:33.318Z,53.80
2017-07-02T21:57:59.817Z,52.30
2017-07-02T22:00:26.349Z,50.70
2017-07-02T22:02:52.838Z,51.80
2017-07-02T22:05:20.066Z,50.70
2017-07-02T22:07:46.594Z,50.60
2017-07-02T22:10:13.161Z,51.30
2017-07-02T22:12:39.680Z,51.70
2017-07-02T22:15:06.927Z,50.40
2017-07-02T22:17:33.415Z,50.40
2017-07-02T22:19:59.906Z,50.70
2017-07-02T22:22:26.474Z,51.70
2017-07-02T22:24:53.094Z,51.00
2017-07-02T22:27:19.585Z,51.70
2017-07-02T22:29:46.093Z,51.50
2017-07-02T22:32:12.585Z,51.70
2017-07-02T22:34:39.144Z,51.90
2017-07-02T22:37:05.629Z,52.60
2017-07-02T22:39:32.204Z,52.40
2017-07-02T22:41:58.705Z,53.10
2017-07-02T22:44:25.521Z,52.20
2017-07-02T22:46:52.012Z,52.00
2017-07-02T22:49:18.527Z,52.30
2017-07-02T22:51:45.023Z,52.70
2017-07-02T22:54:11.563Z,51.50
2017-07-02T22:56:38.815Z,52.20
2017-07-02T22:59:05.330Z,52.10
2017-07-02T23:01:31.890Z,52.90
2017-07-02T23:03:59.121Z,53.50
2017-07-02T23:06:25.620Z,53.50
2017-07-02T23:08:52.102Z,53.90
2017-07-02T23:11:18.662Z,52.30
2017-07-02T23:13:45.169Z,53.60
2017-07-02T23:16:11.689Z,52.30
2017-07-02T23:18:38.233Z,52.50
2017-07-02T23:21:04.739Z,53.10
2017-07-02T23:23:32.246Z,52.70
2017-07-02T23:25:58.748Z,52.90
2017-07-02T23:28:25.322Z,53.00
2017-07-02T23:30:52.525Z,53.70
2017-07-02T23:33:19.062Z,53.60
2017-07-02T23:35:45.618Z,53.60
2017-07-02T23:38:12.250Z,53.60
2017-07-02T23:40:38.797Z,53.60
2017-07-02T23:43:05.386Z,53.60
2017-07-02T23:45:31.900Z,53.60
2017-07-02T23:47:58.502Z,53.50
2017-07-02T23:50:25.799Z,54.70
2017-07-02T23:52:52.278Z,54.70
2017-07-02T23:55:18.917Z,54.70
2017-07-02T23:57:45.421Z,54.60
